Time;durP1;ratioP1;P1;durP2;ratioP2;P2;SDS_P1;SDS_P2;PMS_P1;PMS_P2;Temp;Humidity;BMP_temperature;BMP_pressure;BME280_temperature;BME280_humidity;BME280_pressure;Samples;Min_cycle;Max_cycle;Signal;HPM_P1;HPM_P2
2021/12/22 00:00:49;;;;;;;;;;;;;;;5.75;100.00;99642.72;5094685;28;19971;-77
2021/12/22 00:03:17;;;;;;;;;;;;;;;5.96;100.00;99632.72;5094480;28;19924;-77
2021/12/22 00:05:46;;;;;;;;;;;;;;;6.17;100.00;99624.63;5094424;28;20010;-77
2021/12/22 00:08:14;;;;;;;;;;;;;;;6.22;100.00;99629.03;5094579;28;19924;-77
2021/12/22 00:10:45;;;;;;;;;;;;;;;5.84;100.00;99632.16;5094383;28;19932;-76
2021/12/22 00:13:12;;;;;;;;;;;;;;;5.97;100.00;99639.06;5094500;28;19924;-77
2021/12/22 00:15:40;;;;;;;;;;;;;;;5.97;100.00;99639.84;5093330;28;19963;-77
2021/12/22 00:18:07;;;;;;;;;;;;;;;5.73;100.00;99636.75;5092906;28;20351;-77
2021/12/22 00:20:35;;;;;;;;;;;;;;;5.62;100.00;99635.84;5094299;28;19924;-77
2021/12/22 00:23:02;;;;;;;;;;;;;;;5.61;100.00;99632.25;5094263;28;19977;-76
2021/12/22 00:25:29;;;;;;;;;;;;;;;5.37;100.00;99646.59;5094097;28;19924;-76
2021/12/22 00:27:58;;;;;;;;;;;;;;;5.38;100.00;99640.66;5094439;28;20023;-77
2021/12/22 00:30:25;;;;;;;;;;;;;;;5.37;100.00;99644.63;5093006;28;19954;-77
2021/12/22 00:32:55;;;;;;;;;;;;;;;4.85;100.00;99641.03;5092699;28;20372;-77
2021/12/22 00:35:30;;;;;;;;;;;;;;;5.94;100.00;99634.28;5094360;28;19967;-77
2021/12/22 00:37:57;;;;;;;;;;;;;;;5.74;100.00;99630.03;5094281;28;20420;-77
2021/12/22 00:40:24;;;;;;;;;;;;;;;6.09;100.00;99622.16;5093968;28;20355;-77
2021/12/22 00:42:51;;;;;;;;;;;;;;;6.20;100.00;99614.72;5092675;28;20005;-77
2021/12/22 00:45:23;;;;;;;;;;;;;;;6.34;100.00;99621.22;5094183;28;19928;-77
2021/12/22 00:47:50;;;;;;;;;;;;;;;6.44;100.00;99619.72;5094055;28;20416;-76
2021/12/22 00:50:17;;;;;;;;;;;;;;;6.45;100.00;99615.78;5094079;28;19947;-76
2021/12/22 00:52:44;;;;;;;;;;;;;;;6.50;100.00;99620.97;5094018;28;19928;-76
2021/12/22 00:55:16;;;;;;;;;;;;;;;6.46;100.00;99606.25;5092537;28;20026;-76
2021/12/22 00:57:44;;;;;;;;;;;;;;;6.49;100.00;99611.03;5094408;28;19928;-77
2021/12/22 01:00:12;;;;;;;;;;;;;;;6.60;100.00;99601.66;5093559;28;20294;-77
2021/12/22 01:02:42;;;;;;;;;;;;;;;6.29;100.00;99607.69;5092531;28;19928;-76
2021/12/22 01:05:12;;;;;;;;;;;;;;;5.65;100.00;99601.81;5092978;28;20378;-76
2021/12/22 01:07:39;;;;;;;;;;;;;;;5.87;100.00;99600.91;5093820;28;19930;-77
2021/12/22 01:10:16;;;;;;;;;;;;;;;5.97;100.00;99580.81;5093919;28;20408;-77
2021/12/22 01:12:43;;;;;;;;;;;;;;;5.82;100.00;99579.03;5093902;28;19924;-77
2021/12/22 01:15:11;;;;;;;;;;;;;;;6.28;100.00;99567.25;5093928;28;19928;-77
2021/12/22 01:17:44;;;;;;;;;;;;;;;5.76;100.00;99566.66;5093712;28;20140;-76
2021/12/22 01:20:20;;;;;;;;;;;;;;;5.21;100.00;99574.72;5092393;28;19924;-77
2021/12/22 01:22:48;;;;;;;;;;;;;;;5.12;100.00;99576.16;5109597;28;19924;-76
2021/12/22 01:25:19;;;;;;;;;;;;;;;5.19;100.00;99585.41;5093455;28;19931;-77
2021/12/22 01:27:47;;;;;;;;;;;;;;;4.65;100.00;99578.66;5093935;28;20309;-77
2021/12/22 01:30:20;;;;;;;;;;;;;;;5.48;100.00;99584.56;5092455;28;19939;-77
2021/12/22 01:32:48;;;;;;;;;;;;;;;5.45;100.00;99585.31;5093503;28;19931;-77
2021/12/22 01:35:17;;;;;;;;;;;;;;;6.06;100.00;99586.84;5093508;28;20051;-77
2021/12/22 01:37:45;;;;;;;;;;;;;;;5.86;100.00;99577.13;5109121;28;20719;-77
2021/12/22 01:40:13;;;;;;;;;;;;;;;5.78;100.00;99572.66;5092292;28;19935;-77
2021/12/22 01:42:40;;;;;;;;;;;;;;;5.59;100.00;99568.88;5093637;28;19924;-76
2021/12/22 01:45:29;;;;;;;;;;;;;;;5.47;100.00;99566.34;5093230;28;20359;-77
2021/12/22 01:50:46;;;;;;;;;;;;;;;5.72;100.00;99568.63;5075593;28;19928;-76
2021/12/22 01:53:23;;;;;;;;;;;;;;;5.22;100.00;99573.56;5093275;28;19938;-77
2021/12/22 01:56:02;;;;;;;;;;;;;;;5.25;100.00;99577.56;5092971;28;20007;-77
2021/12/22 01:58:34;;;;;;;;;;;;;;;5.43;100.00;99579.38;5092406;28;19931;-77
2021/12/22 02:01:02;;;;;;;;;;;;;;;5.05;100.00;99573.31;5093364;28;19962;-77
2021/12/22 02:03:35;;;;;;;;;;;;;;;4.88;100.00;99566.34;5093866;28;20371;-77
2021/12/22 02:06:11;;;;;;;;;;;;;;;5.54;100.00;99566.44;5092379;28;19932;-77
2021/12/22 02:08:39;;;;;;;;;;;;;;;5.96;100.00;99565.34;5093384;28;19947;-76
2021/12/22 02:11:06;;;;;;;;;;;;;;;5.37;100.00;99567.03;5092371;28;19939;-77
2021/12/22 02:13:38;;;;;;;;;;;;;;;5.18;100.00;99556.09;5095544;28;19924;-77
2021/12/22 02:16:09;;;;;;;;;;;;;;;5.50;100.00;99560.06;5096464;28;19924;-76
2021/12/22 02:18:38;;;;;;;;;;;;;;;5.60;100.00;99553.81;5095419;28;19924;-77
2021/12/22 02:21:05;;;;;;;;;;;;;;;4.20;100.00;99546.28;5112266;28;19924;-77
2021/12/22 02:23:33;;;;;;;;;;;;;;;4.94;100.00;99544.66;5096513;28;19924;-76
2021/12/22 02:26:11;;;;;;;;;;;;;;;4.90;100.00;99541.88;5096540;28;20320;-77
2021/12/22 02:28:43;;;;;;;;;;;;;;;5.62;100.00;99541.59;5096483;28;19924;-77
2021/12/22 02:31:14;;;;;;;;;;;;;;;5.36;100.00;99536.94;5096362;28;19924;-76
2021/12/22 02:33:45;;;;;;;;;;;;;;;5.00;100.00;99535.66;5095280;28;19942;-77
2021/12/22 02:38:47;;;;;;;;;;;;;;;5.69;100.00;99538.88;5095950;28;19997;-77
2021/12/22 02:41:16;;;;;;;;;;;;;;;5.32;100.00;99541.59;5095851;28;19924;-77
2021/12/22 02:43:46;;;;;;;;;;;;;;;4.86;100.00;99543.00;5095720;28;20439;-77
2021/12/22 02:46:15;;;;;;;;;;;;;;;5.29;100.00;99532.09;5094692;28;20010;-77
2021/12/22 02:48:42;;;;;;;;;;;;;;;4.97;100.00;99530.88;5095895;28;19928;-77
2021/12/22 02:51:10;;;;;;;;;;;;;;;4.94;100.00;99530.81;5094534;28;20008;-76
2021/12/22 02:54:26;;;;;;;;;;;;;;;5.70;100.00;99529.38;5094621;28;19928;-77
2021/12/22 02:56:31;;;;;;;;;;;;;;;5.92;100.00;99525.69;5084002;28;19928;-77
2021/12/22 03:04:07;;;;;;;;;;;;;;;5.81;100.00;99511.69;5095594;28;20307;-77
2021/12/22 03:09:35;;;;;;;;;;;;;;;5.15;100.00;99512.50;5055961;28;19925;-77
2021/12/22 03:12:04;;;;;;;;;;;;;;;5.00;100.00;99496.88;5072591;28;19932;-76
2021/12/22 03:14:32;;;;;;;;;;;;;;;5.11;100.00;99497.81;5072620;28;19928;-77
2021/12/22 03:17:00;;;;;;;;;;;;;;;5.19;100.00;99491.22;5072536;28;19928;-77
2021/12/22 03:19:31;;;;;;;;;;;;;;;4.99;100.00;99483.41;5072524;28;20358;-77
2021/12/22 03:22:05;;;;;;;;;;;;;;;4.93;100.00;99488.50;5072530;28;19925;-77
2021/12/22 03:24:34;;;;;;;;;;;;;;;5.13;100.00;99484.41;5039150;28;20043;-77
2021/12/22 03:27:03;;;;;;;;;;;;;;;5.25;100.00;99475.84;5072072;28;19924;-76
2021/12/22 03:29:31;;;;;;;;;;;;;;;4.65;100.00;99482.56;5072357;28;19931;-76
2021/12/22 03:31:59;;;;;;;;;;;;;;;4.86;100.00;99480.09;5072361;28;19928;-77
2021/12/22 03:34:26;;;;;;;;;;;;;;;5.10;100.00;99478.81;5072109;28;19925;-77
2021/12/22 03:36:53;;;;;;;;;;;;;;;5.22;100.00;99473.84;5072104;28;19929;-77
2021/12/22 03:39:20;;;;;;;;;;;;;;;5.23;100.00;99472.63;5055367;28;20358;-76
2021/12/22 03:41:48;;;;;;;;;;;;;;;5.12;100.00;99473.69;5052017;28;19924;-77
2021/12/22 03:44:15;;;;;;;;;;;;;;;4.69;100.00;99477.88;5051105;28;19955;-77
2021/12/22 03:46:42;;;;;;;;;;;;;;;4.77;100.00;99482.31;5054164;28;20338;-77
2021/12/22 03:49:11;;;;;;;;;;;;;;;4.97;100.00;99483.78;5054272;28;19998;-76
2021/12/22 03:51:38;;;;;;;;;;;;;;;5.04;100.00;99483.88;5054396;28;19938;-76
2021/12/22 03:54:06;;;;;;;;;;;;;;;4.93;100.00;99485.72;5053119;28;19925;-76
2021/12/22 03:56:35;;;;;;;;;;;;;;;4.95;100.00;99477.03;5053698;28;19925;-76
2021/12/22 03:59:03;;;;;;;;;;;;;;;4.81;100.00;99472.13;5054179;28;19931;-77
2021/12/22 04:01:33;;;;;;;;;;;;;;;4.83;100.00;99478.06;5054248;28;19928;-77
2021/12/22 04:04:06;;;;;;;;;;;;;;;5.07;100.00;99480.34;5054054;28;19932;-76
2021/12/22 04:06:35;;;;;;;;;;;;;;;4.38;100.00;99478.22;5053951;28;19979;-77
2021/12/22 04:09:02;;;;;;;;;;;;;;;4.58;100.00;99476.94;5054056;28;20421;-76
2021/12/22 04:11:30;;;;;;;;;;;;;;;4.37;100.00;99473.06;5069192;28;19947;-77
2021/12/22 04:13:58;;;;;;;;;;;;;;;4.75;100.00;99462.56;5069412;28;20426;-77
2021/12/22 04:16:25;;;;;;;;;;;;;;;4.91;100.00;99465.91;5053782;28;19925;-77
2021/12/22 04:18:52;;;;;;;;;;;;;;;4.96;100.00;99459.25;5053730;28;20027;-77
2021/12/22 04:21:20;;;;;;;;;;;;;;;4.89;100.00;99462.72;5069135;28;19932;-76
2021/12/22 04:23:47;;;;;;;;;;;;;;;4.37;100.00;99457.25;5052577;28;19924;-76
2021/12/22 04:26:15;;;;;;;;;;;;;;;4.60;100.00;99455.22;5053260;28;20402;-77
2021/12/22 04:28:42;;;;;;;;;;;;;;;4.68;100.00;99443.06;5053759;28;19928;-76
2021/12/22 04:31:09;;;;;;;;;;;;;;;4.40;100.00;99439.91;5069068;28;19950;-76
2021/12/22 04:33:36;;;;;;;;;;;;;;;4.53;100.00;99432.97;5068868;28;20028;-77
2021/12/22 04:36:04;;;;;;;;;;;;;;;4.38;100.00;99435.91;5053005;28;20408;-76
2021/12/22 04:38:31;;;;;;;;;;;;;;;4.53;100.00;99438.50;5052093;28;19951;-77
2021/12/22 04:40:58;;;;;;;;;;;;;;;4.43;100.00;99421.75;5079143;28;19947;-76
2021/12/22 04:43:25;;;;;;;;;;;;;;;4.38;100.00;99431.19;5093801;28;20061;-77
2021/12/22 04:45:52;;;;;;;;;;;;;;;3.47;100.00;99418.66;5093660;28;19928;-77
2021/12/22 04:48:23;;;;;;;;;;;;;;;3.75;100.00;99410.84;5093311;28;19928;-77
2021/12/22 04:50:50;;;;;;;;;;;;;;;3.91;100.00;99405.97;5093590;28;20382;-76
2021/12/22 04:53:24;;;;;;;;;;;;;;;4.47;100.00;99412.34;5093574;28;20382;-77
2021/12/22 04:55:53;;;;;;;;;;;;;;;3.94;100.00;99405.22;5093685;28;19936;-77
2021/12/22 04:58:20;;;;;;;;;;;;;;;4.35;100.00;99398.72;5092290;28;20368;-76
2021/12/22 05:00:47;;;;;;;;;;;;;;;4.81;100.00;99391.84;5092139;28;19973;-77
2021/12/22 05:03:14;;;;;;;;;;;;;;;4.50;100.00;99389.44;5092229;28;19947;-77
2021/12/22 05:05:41;;;;;;;;;;;;;;;4.58;100.00;99385.59;5092372;28;19924;-77
2021/12/22 05:08:08;;;;;;;;;;;;;;;4.67;100.00;99379.78;5091983;28;19924;-77
2021/12/22 05:10:35;;;;;;;;;;;;;;;4.38;100.00;99381.38;5092255;28;20483;-77
2021/12/22 05:13:04;;;;;;;;;;;;;;;4.61;100.00;99368.25;5092126;28;19978;-77
2021/12/22 05:15:38;;;;;;;;;;;;;;;4.51;100.00;99363.38;5093262;28;20001;-77
2021/12/22 05:18:20;;;;;;;;;;;;;;;3.96;100.00;99358.66;5091785;28;20259;-76
2021/12/22 05:20:48;;;;;;;;;;;;;;;4.10;100.00;99364.41;5093238;28;20367;-77
2021/12/22 05:23:16;;;;;;;;;;;;;;;3.95;100.00;99365.38;5093253;28;19924;-77
2021/12/22 05:25:44;;;;;;;;;;;;;;;4.08;100.00;99355.66;5093312;28;19935;-76
2021/12/22 05:28:11;;;;;;;;;;;;;;;3.71;100.00;99357.50;5093078;28;19924;-77
2021/12/22 05:30:39;;;;;;;;;;;;;;;3.94;100.00;99361.00;5091886;28;20013;-77
2021/12/22 05:33:07;;;;;;;;;;;;;;;3.93;100.00;99355.84;5091912;28;19947;-76
2021/12/22 05:35:34;;;;;;;;;;;;;;;3.95;100.00;99356.28;5093140;28;19974;-76
2021/12/22 05:38:02;;;;;;;;;;;;;;;3.62;100.00;99349.44;5091576;28;19924;-77
2021/12/22 05:40:30;;;;;;;;;;;;;;;3.18;100.00;99351.06;5093001;28;20010;-77
2021/12/22 05:42:57;;;;;;;;;;;;;;;3.49;100.00;99341.72;5091818;28;19951;-76
2021/12/22 05:45:25;;;;;;;;;;;;;;;3.47;100.00;99347.63;5074901;28;19924;-76
2021/12/22 05:47:55;;;;;;;;;;;;;;;3.41;100.00;99338.06;5113465;28;19924;-77
2021/12/22 05:50:50;;;;;;;;;;;;;;;3.34;100.00;99342.66;5099188;28;19924;-78
2021/12/22 05:53:28;;;;;;;;;;;;;;;3.01;100.00;99351.56;5097620;28;19924;-76
2021/12/22 05:56:12;;;;;;;;;;;;;;;3.30;100.00;99345.34;5097175;28;19931;-77
2021/12/22 05:58:42;;;;;;;;;;;;;;;3.62;100.00;99343.91;5096613;28;19924;-77
2021/12/22 06:01:09;;;;;;;;;;;;;;;3.72;100.00;99348.03;5096677;28;19924;-77
2021/12/22 06:03:37;;;;;;;;;;;;;;;3.54;100.00;99336.69;5096775;28;19944;-77
2021/12/22 06:06:05;;;;;;;;;;;;;;;3.50;100.00;99337.78;5096173;28;19924;-77
2021/12/22 06:08:32;;;;;;;;;;;;;;;3.24;100.00;99337.78;5094859;28;20272;-76
2021/12/22 06:10:59;;;;;;;;;;;;;;;3.35;100.00;99334.00;5096272;28;20007;-77
2021/12/22 06:13:26;;;;;;;;;;;;;;;3.22;100.00;99326.28;5094991;28;19930;-77
2021/12/22 06:15:54;;;;;;;;;;;;;;;3.06;100.00;99325.63;5095841;28;19932;-77
2021/12/22 06:18:23;;;;;;;;;;;;;;;3.00;100.00;99318.81;5094649;28;19985;-76
2021/12/22 06:20:50;;;;;;;;;;;;;;;3.03;100.00;99315.31;5095721;28;20027;-76
2021/12/22 06:23:17;;;;;;;;;;;;;;;3.41;100.00;99317.91;5094680;28;20010;-76
2021/12/22 06:25:44;;;;;;;;;;;;;;;3.37;100.00;99325.34;5096363;28;19924;-76
2021/12/22 06:28:11;;;;;;;;;;;;;;;3.60;100.00;99328.88;5096387;28;19924;-77
2021/12/22 06:30:38;;;;;;;;;;;;;;;3.57;100.00;99329.63;5092552;28;20544;-76
2021/12/22 06:33:05;;;;;;;;;;;;;;;3.50;100.00;99329.50;5080428;28;19931;-77
2021/12/22 06:35:34;;;;;;;;;;;;;;;3.56;100.00;99339.06;5087110;28;19932;-76
2021/12/22 06:38:01;;;;;;;;;;;;;;;3.38;100.00;99324.19;5096433;28;19924;-76
2021/12/22 06:40:29;;;;;;;;;;;;;;;3.57;100.00;99329.63;5095717;28;19931;-77
2021/12/22 06:42:56;;;;;;;;;;;;;;;3.48;100.00;99332.63;5094590;28;20015;-76
2021/12/22 06:45:23;;;;;;;;;;;;;;;3.77;100.00;99333.09;5096053;28;19924;-76
2021/12/22 06:47:50;;;;;;;;;;;;;;;3.89;100.00;99335.66;5095984;28;20422;-77
2021/12/22 06:50:17;;;;;;;;;;;;;;;3.56;100.00;99339.06;5095434;28;19931;-77
2021/12/22 06:52:44;;;;;;;;;;;;;;;3.77;100.00;99333.91;5095986;28;19935;-77
2021/12/22 06:55:11;;;;;;;;;;;;;;;3.91;100.00;99339.63;5095824;28;20367;-77
2021/12/22 06:57:42;;;;;;;;;;;;;;;4.05;100.00;99331.53;5093234;28;19924;-77
2021/12/22 07:00:11;;;;;;;;;;;;;;;4.05;100.00;99322.44;5087960;28;19939;-77
2021/12/22 07:02:39;;;;;;;;;;;;;;;3.72;100.00;99321.19;5092070;28;19925;-77
2021/12/22 07:05:17;;;;;;;;;;;;;;;3.69;100.00;99324.72;5096302;28;19931;-77
2021/12/22 07:07:44;;;;;;;;;;;;;;;3.71;100.00;99333.41;5082351;28;19935;-77
2021/12/22 07:10:12;;;;;;;;;;;;;;;3.86;100.00;99333.63;5089046;28;19925;-76
2021/12/22 07:12:40;;;;;;;;;;;;;;;3.50;100.00;99332.25;5087860;28;20362;-76
2021/12/22 07:15:10;;;;;;;;;;;;;;;3.98;100.00;99328.69;5095551;28;19924;-77
2021/12/22 07:17:37;;;;;;;;;;;;;;;3.93;100.00;99330.94;5094365;28;19924;-76
2021/12/22 07:20:07;;;;;;;;;;;;;;;4.23;100.00;99340.88;5092903;28;20402;-77
2021/12/22 07:22:35;;;;;;;;;;;;;;;4.39;100.00;99332.38;5090701;28;19960;-77
2021/12/22 07:25:05;;;;;;;;;;;;;;;4.52;100.00;99337.31;5083080;28;19928;-77
2021/12/22 07:27:32;;;;;;;;;;;;;;;4.75;100.00;99337.16;5093205;28;19947;-77
2021/12/22 07:29:59;;;;;;;;;;;;;;;4.30;100.00;99334.66;5090307;28;20359;-77
2021/12/22 07:32:27;;;;;;;;;;;;;;;4.65;100.00;99340.63;5074898;28;19931;-77
2021/12/22 07:35:13;;;;;;;;;;;;;;;4.36;100.00;99324.84;5074728;28;19928;-76
2021/12/22 07:37:40;;;;;;;;;;;;;;;4.62;100.00;99335.84;5074857;28;19932;-76
2021/12/22 07:40:09;;;;;;;;;;;;;;;4.44;100.00;99338.38;5073073;28;19924;-77
2021/12/22 07:42:36;;;;;;;;;;;;;;;4.45;100.00;99337.22;5083694;28;19935;-76
2021/12/22 07:45:04;;;;;;;;;;;;;;;4.34;100.00;99344.59;5094963;28;19924;-77
2021/12/22 07:47:31;;;;;;;;;;;;;;;4.79;100.00;99341.56;5076449;28;20527;-77
2021/12/22 07:50:00;;;;;;;;;;;;;;;5.23;100.00;99349.94;5093436;28;20299;-79
2021/12/22 07:52:27;;;;;;;;;;;;;;;5.31;100.00;99352.41;5094074;28;20415;-78
2021/12/22 07:54:54;;;;;;;;;;;;;;;5.24;100.00;99346.00;5094878;28;19928;-77
2021/12/22 07:57:25;;;;;;;;;;;;;;;4.70;100.00;99349.38;5087966;28;19932;-77
2021/12/22 07:59:55;;;;;;;;;;;;;;;5.10;100.00;99346.63;5083201;28;19938;-77
2021/12/22 08:02:25;;;;;;;;;;;;;;;5.20;100.00;99340.44;5092579;28;20286;-77
2021/12/22 08:04:52;;;;;;;;;;;;;;;5.29;100.00;99338.13;5071819;28;19924;-78
2021/12/22 08:07:19;;;;;;;;;;;;;;;5.42;100.00;99347.75;5079998;28;19931;-78
2021/12/22 08:09:47;;;;;;;;;;;;;;;5.38;100.00;99346.13;5085968;28;19947;-78
2021/12/22 08:12:16;;;;;;;;;;;;;;;4.67;100.00;99344.59;5080609;28;19947;-78
2021/12/22 08:14:43;;;;;;;;;;;;;;;4.88;100.00;99344.03;5079113;28;20011;-78
2021/12/22 08:17:10;;;;;;;;;;;;;;;4.85;100.00;99351.13;5090263;28;19928;-78
2021/12/22 08:19:41;;;;;;;;;;;;;;;4.21;100.00;99343.19;5082408;28;20011;-78
2021/12/22 08:22:08;;;;;;;;;;;;;;;4.73;100.00;99348.63;5083127;28;19924;-77
2021/12/22 08:24:37;;;;;;;;;;;;;;;5.01;100.00;99337.06;5093497;28;19943;-78
2021/12/22 08:27:04;;;;;;;;;;;;;;;4.99;100.00;99340.22;5092255;28;19983;-78
2021/12/22 08:29:36;;;;;;;;;;;;;;;5.29;100.00;99343.69;5092544;28;19935;-78
2021/12/22 08:32:03;;;;;;;;;;;;;;;5.13;100.00;99345.91;5099381;28;20302;-78
2021/12/22 08:34:36;;;;;;;;;;;;;;;5.04;100.00;99344.63;5092767;28;20290;-79
2021/12/22 08:39:56;;;;;;;;;;;;;;;4.41;100.00;99347.44;5092421;28;19928;-77
2021/12/22 08:42:26;;;;;;;;;;;;;;;4.77;100.00;99346.69;5107824;28;20010;-77
2021/12/22 08:44:53;;;;;;;;;;;;;;;4.87;100.00;99343.25;5087886;28;20007;-78
2021/12/22 08:47:20;;;;;;;;;;;;;;;5.45;100.00;99349.75;5082734;28;20069;-76
2021/12/22 08:49:47;;;;;;;;;;;;;;;5.42;100.00;99346.97;5080869;28;19924;-77
2021/12/22 08:52:15;;;;;;;;;;;;;;;5.55;100.00;99335.19;5085346;28;20029;-78
2021/12/22 08:54:44;;;;;;;;;;;;;;;5.24;100.00;99330.16;5093390;28;19966;-79
2021/12/22 08:57:12;;;;;;;;;;;;;;;5.05;100.00;99327.63;5074549;28;20267;-77
2021/12/22 08:59:39;;;;;;;;;;;;;;;5.57;100.00;99326.50;5085331;28;20605;-77
2021/12/22 09:02:08;;;;;;;;;;;;;;;5.38;100.00;99327.53;5091351;28;19924;-77
2021/12/22 09:04:38;;;;;;;;;;;;;;;5.40;100.00;99319.63;5092414;28;19935;-77
2021/12/22 09:07:05;;;;;;;;;;;;;;;5.33;100.00;99316.00;5090717;28;19931;-77
2021/12/22 09:09:37;;;;;;;;;;;;;;;5.14;100.00;99307.91;5092419;28;19928;-77
2021/12/22 09:12:07;;;;;;;;;;;;;;;5.26;100.00;99310.38;5091111;28;19928;-77
2021/12/22 09:14:34;;;;;;;;;;;;;;;5.65;100.00;99294.09;5092694;28;19928;-78
2021/12/22 09:17:02;;;;;;;;;;;;;;;5.58;100.00;99306.72;5071758;28;19924;-77
2021/12/22 09:19:29;;;;;;;;;;;;;;;5.80;100.00;99301.31;5088382;28;19924;-77
2021/12/22 09:21:56;;;;;;;;;;;;;;;5.89;100.00;99296.25;5091418;28;19925;-80
2021/12/22 09:24:23;;;;;;;;;;;;;;;5.45;100.00;99296.31;5090297;28;20492;-78
2021/12/22 09:26:50;;;;;;;;;;;;;;;5.22;100.00;99302.06;5091299;28;19924;-78
2021/12/22 09:29:18;;;;;;;;;;;;;;;4.75;100.00;99307.53;5090514;28;19977;-78
2021/12/22 09:31:45;;;;;;;;;;;;;;;5.49;100.00;99320.09;5090610;28;20393;-79
2021/12/22 09:34:12;;;;;;;;;;;;;;;5.10;100.00;99310.63;5106915;28;19930;-78
2021/12/22 09:36:42;;;;;;;;;;;;;;;5.30;100.00;99297.38;5071745;28;19931;-79
2021/12/22 09:39:11;;;;;;;;;;;;;;;5.53;100.00;99298.75;5091596;28;19931;-80
2021/12/22 09:41:38;;;;;;;;;;;;;;;5.69;100.00;99294.91;5092161;28;19924;-79
2021/12/22 09:44:05;;;;;;;;;;;;;;;5.89;100.00;99288.75;5091787;28;19932;-79
2021/12/22 09:46:35;;;;;;;;;;;;;;;6.01;100.00;99284.84;5085007;28;19924;-79
2021/12/22 09:49:20;;;;;;;;;;;;;;;6.12;100.00;99280.94;5093047;28;19924;-80
2021/12/22 09:54:33;;;;;;;;;;;;;;;6.05;100.00;99271.78;5091000;28;19928;-79
2021/12/22 09:57:01;;;;;;;;;;;;;;;6.19;100.00;99263.53;5091023;28;19955;-83
2021/12/22 09:59:30;;;;;;;;;;;;;;;5.96;100.00;99265.78;5092595;28;19924;-79
2021/12/22 10:01:57;;;;;;;;;;;;;;;6.02;100.00;99275.31;5095185;28;20251;-79
2021/12/22 10:04:24;;;;;;;;;;;;;;;5.97;100.00;99268.16;5087314;28;20283;-77
2021/12/22 10:06:51;;;;;;;;;;;;;;;6.20;100.00;99254.00;5088180;28;19928;-78
2021/12/22 10:09:21;;;;;;;;;;;;;;;6.39;100.00;99267.59;5070127;28;19925;-81
2021/12/22 10:11:49;;;;;;;;;;;;;;;6.35;100.00;99262.00;5084015;28;20697;-78
2021/12/22 10:14:23;;;;;;;;;;;;;;;6.29;100.00;99260.00;5099528;28;19924;-80
2021/12/22 10:16:52;;;;;;;;;;;;;;;6.32;100.00;99259.22;5082833;28;19929;-79
2021/12/22 10:19:20;;;;;;;;;;;;;;;5.72;100.00;99263.63;5083506;28;20046;-78
2021/12/22 10:21:50;;;;;;;;;;;;;;;5.48;100.00;99268.59;5082263;28;19928;-77
2021/12/22 10:24:17;;;;;;;;;;;;;;;5.88;100.00;99264.94;5082821;28;19924;-77
2021/12/22 10:26:44;;;;;;;;;;;;;;;5.82;100.00;99260.16;5092774;28;19928;-78
2021/12/22 10:29:11;;;;;;;;;;;;;;;6.27;100.00;99249.28;5079158;28;19951;-79
2021/12/22 10:31:43;;;;;;;;;;;;;;;6.24;100.00;99249.28;5087266;28;19924;-78
2021/12/22 10:34:12;;;;;;;;;;;;;;;6.46;100.00;99251.75;5085383;28;20007;-78
2021/12/22 10:36:51;;;;;;;;;;;;;;;6.54;100.00;99235.91;5085354;28;19931;-79
2021/12/22 10:39:20;;;;;;;;;;;;;;;6.51;100.00;99220.03;5085019;28;19928;-77
2021/12/22 10:41:47;;;;;;;;;;;;;;;6.83;100.00;99226.44;5085494;28;19928;-79
2021/12/22 10:44:15;;;;;;;;;;;;;;;6.38;100.00;99225.16;5083359;28;20027;-80
2021/12/22 10:46:47;;;;;;;;;;;;;;;6.10;100.00;99218.69;5084291;28;19948;-78
2021/12/22 10:49:19;;;;;;;;;;;;;;;6.27;100.00;99229.09;5084942;28;19938;-78
2021/12/22 10:52:00;;;;;;;;;;;;;;;6.19;100.00;99216.34;5083648;28;19932;-77
2021/12/22 10:54:36;;;;;;;;;;;;;;;5.95;100.00;99215.09;5083293;28;19966;-77
2021/12/22 10:57:05;;;;;;;;;;;;;;;6.31;100.00;99216.81;5089170;28;19932;-77
2021/12/22 10:59:43;;;;;;;;;;;;;;;6.11;100.00;99210.00;5071802;28;19928;-78
2021/12/22 11:12:05;;;;;;;33.15;16.13;;;;;;;6.21;100.00;99166.84;5027964;28;20099;-77
2021/12/22 11:16:48;;;;;;;32.58;16.13;;;;;;;6.45;100.00;99155.75;4944006;29;20117;-79
2021/12/22 11:19:15;;;;;;;31.17;15.75;;;;;;;6.66;100.00;99141.13;4949328;29;20058;-79
2021/12/22 11:21:58;;;;;;;23.95;14.05;;;;;;;6.89;100.00;99136.00;4946302;28;20035;-81
2021/12/22 11:24:27;;;;;;;31.77;14.50;;;;;;;6.48;100.00;99127.22;4948546;29;20043;-79
2021/12/22 11:26:55;;;;;;;37.38;18.63;;;;;;;6.30;100.00;99137.50;4951179;28;20055;-78
2021/12/22 11:29:24;;;;;;;36.80;22.33;;;;;;;6.42;100.00;99133.56;4948996;28;20047;-77
2021/12/22 11:31:52;;;;;;;39.63;18.45;;;;;;;6.63;100.00;99108.59;4933327;29;20389;-76
2021/12/22 11:34:22;;;;;;;45.75;23.60;;;;;;;6.23;100.00;99106.16;4948880;29;20453;-77
2021/12/22 11:36:50;;;;;;;69.70;36.80;;;;;;;6.06;100.00;99106.94;4934787;29;20048;-76
2021/12/22 11:39:19;;;;;;;43.50;22.13;;;;;;;6.30;100.00;99100.66;4951427;28;20114;-75
2021/12/22 11:41:54;;;;;;;27.90;15.32;;;;;;;6.35;100.00;99098.28;4953036;29;20043;-75
2021/12/22 11:44:24;;;;;;;25.15;15.07;;;;;;;6.48;100.00;99102.25;4952858;28;20506;-75
2021/12/22 11:47:04;;;;;;;41.13;23.25;;;;;;;6.33;100.00;99102.63;5005368;28;20539;-75
2021/12/22 11:49:34;;;;;;;40.67;23.27;;;;;;;6.34;100.00;99098.66;5078761;28;20047;-75
2021/12/22 11:52:03;;;;;;;44.45;25.70;;;;;;;6.60;100.00;99090.78;5094434;28;20050;-75
2021/12/22 11:54:32;;;;;;;36.97;20.23;;;;;;;6.72;100.00;99086.78;5075783;28;20047;-75
2021/12/22 11:57:00;;;;;;;37.90;21.42;;;;;;;7.01;100.00;99088.34;5078653;28;20106;-75
2021/12/22 11:59:38;;;;;;;42.83;22.10;;;;;;;6.82;100.00;99097.09;5072432;28;20055;-75
2021/12/22 12:02:34;;;;;;;32.95;15.68;;;;;;;6.08;100.00;99065.72;5102858;28;20040;-75
2021/12/22 12:05:29;;;;;;;25.40;14.05;;;;;;;5.32;100.00;99067.81;5092624;28;20039;-78
2021/12/22 12:08:07;;;;;;;27.52;15.18;;;;;;;4.90;100.00;99068.38;5094139;28;20074;-78
2021/12/22 12:10:34;;;;;;;27.50;14.98;;;;;;;5.46;100.00;99077.00;5092215;28;20051;-79
2021/12/22 12:13:17;;;;;;;;;;;;;;;5.81;100.00;99072.75;5092917;28;20047;-78
2021/12/22 12:21:50;;;;;;;30.85;14.60;;;;;;;6.16;100.00;99054.25;5093780;28;20036;-78
2021/12/22 12:24:38;;;;;;;28.85;14.18;;;;;;;6.04;100.00;99056.59;5092236;28;20046;-78
2021/12/22 12:27:23;;;;;;;;;;;;;;;5.87;100.00;99049.03;5093128;28;20395;-78
2021/12/22 12:30:12;;;;;;;27.35;16.83;;;;;;;6.74;100.00;99056.66;5093652;28;19943;-79
2021/12/22 12:32:41;;;;;;;;;;;;;;;6.92;100.00;99043.53;5093917;28;20105;-79
2021/12/22 12:35:26;;;;;;;;;;;;;;;6.77;100.00;99036.41;5092486;28;19965;-78
2021/12/22 12:38:03;;;;;;;;;;;;;;;5.50;100.00;99036.22;5092484;28;19973;-78
2021/12/22 12:40:50;;;;;;;;;;;;;;;6.51;100.00;99037.59;5092320;28;19978;-78
2021/12/22 12:43:18;;;;;;;22.38;11.95;;;;;;;6.75;100.00;99016.56;5090050;28;19920;-78
2021/12/22 12:45:46;;;;;;;;;;;;;;;6.59;100.00;99021.72;5092248;28;20040;-78
2021/12/22 12:48:27;;;;;;;;;;;;;;;6.84;100.00;99017.75;5109129;28;19942;-79
2021/12/22 12:51:29;;;;;;;24.63;14.60;;;;;;;6.18;100.00;99006.69;5091804;28;19920;-79
2021/12/22 12:53:58;;;;;;;;;;;;;;;6.00;100.00;99011.44;5092948;28;20044;-79
2021/12/22 12:56:37;;;;;;;;;;;;;;;6.69;100.00;99020.94;5091149;28;19920;-79
2021/12/22 12:59:09;;;;;;;;;;;;;;;7.00;100.00;99003.41;5092138;28;20272;-79
2021/12/22 13:01:46;;;;;;;;;;;;;;;6.87;100.00;99011.41;5092061;28;19924;-79
2021/12/22 13:04:23;;;;;;;;;;;;;;;7.18;100.00;99004.16;5098375;28;19920;-77
2021/12/22 13:06:54;;;;;;;;;;;;;;;7.41;100.00;98992.56;5091962;28;20029;-78
2021/12/22 13:09:23;;;;;;;;;;;;;;;7.50;100.00;98979.78;5092274;28;19920;-79
2021/12/22 13:11:57;;;;;;;;;;;;;;;7.60;100.00;98987.31;5092034;28;19955;-78
2021/12/22 13:17:21;;;;;;;;;;;;;;;7.67;100.00;98986.44;5090209;28;19924;-76
2021/12/22 13:19:52;;;;;;;;;;;;;;;7.55;100.00;98973.81;5091736;28;19966;-77
2021/12/22 13:22:24;;;;;;;;;;;;;;;7.66;100.00;98982.91;5078374;28;19928;-76
2021/12/22 13:25:09;;;;;;;;;;;;;;;7.68;100.00;98972.13;5090019;28;19928;-76
2021/12/22 13:27:40;;;;;;;24.52;11.90;;;;;;;7.79;100.00;98966.50;5090708;28;19920;-75
2021/12/22 13:30:08;;;;;;;21.27;11.20;;;;;;;7.05;100.00;98962.13;5090669;28;20086;-76